< < Back
Terminal Aerodrome Forecast


Current Version              Previous Versions:   1  2  3  4  5  6  7  8  9  

Terminal Aerodrome Forecast

115
FTUS42 KMLB 271819 AAA
TAFDAB
TAF AMD
KDAB 271819Z 2718/2818 24014KT P6SM VCTS SCT035CB BKN050
      TEMPO 2718/2720 VRB20G30KT 3SM TSRA BKN025CB
     FM280000 27013KT P6SM VCSH BKN035
     FM280300 29011KT P6SM BKN250=

Latest METAR

534
SAUS80 KWBC 272000
MTRDAB
METAR KDAB 271953Z 24013KT 10SM FEW013 FEW033 BKN080 OVC130 21/19 A2979
RMK AO2 PK WND 27033/1915 RAB14E47 SLP085 P0016 T02060189


USA.gov is the U.S. government's official web portal to all federal, state and local government web resources and services.